Terminal Aerodrome Forecast
Issued by NWS

Home | Current Version | Previous Version | Text Only | Print | Product List | Glossary On
Versions: 1 2 3 4 5 6 7 8 9 10 11 12 13 14 15 16 17 18 19 20 21 22 23 24 25 26 27 28 29 30
672
FTUS41 KPBZ 031734
TAFAGC
TAF
KAGC 031734Z 0318/0418 VRB03KT P6SM BKN060
     FM040900 23003KT 4SM BR OVC025
     FM041100 20002KT 4SM BR OVC003
     FM041200 20002KT 4SM BR OVC025
     FM041300 20003KT P6SM BKN050=

USA.gov is the U.S. government's official web portal to all federal, state and local government web resources and services.